Time;durP1;ratioP1;P1;durP2;ratioP2;P2;SDS_P1;SDS_P2;PMS_P1;PMS_P2;Temp;Humidity;BMP_temperature;BMP_pressure;BME280_temperature;BME280_humidity;BME280_pressure;Samples;Min_cycle;Max_cycle;Signal;HPM_P1;HPM_P2
2021/11/22 00:02:24;;;;;;;19.40;13.77;;;7.10;99.90;;;;;;5082051;28;20216;-81
2021/11/22 00:04:51;;;;;;;20.65;14.48;;;6.70;99.90;;;;;;5082181;28;20641;-81
2021/11/22 00:07:18;;;;;;;21.85;14.25;;;7.00;99.90;;;;;;5080526;28;20217;-81
2021/11/22 00:09:45;;;;;;;20.40;14.23;;;6.80;99.90;;;;;;5080814;28;20211;-82
2021/11/22 00:12:12;;;;;;;22.35;14.18;;;6.80;99.90;;;;;;5080223;28;20216;-82
2021/11/22 00:14:40;;;;;;;20.60;13.90;;;7.00;99.90;;;;;;5080696;28;20312;-82
2021/11/22 00:17:07;;;;;;;21.40;14.90;;;7.00;99.90;;;;;;5079500;28;20296;-81
2021/11/22 00:19:35;;;;;;;23.55;14.55;;;6.90;99.90;;;;;;5079928;28;20300;-80
2021/11/22 00:22:03;;;;;;;19.92;11.93;;;6.90;99.90;;;;;;5080653;28;20635;-81
2021/11/22 00:24:30;;;;;;;21.73;14.23;;;6.80;99.90;;;;;;5081307;28;20234;-81
2021/11/22 00:26:57;;;;;;;24.90;15.20;;;7.00;99.90;;;;;;5087902;28;20201;-81
2021/11/22 00:29:23;;;;;;;22.70;14.57;;;7.00;99.90;;;;;;5085570;28;20219;-81
2021/11/22 00:31:53;;;;;;;23.10;14.20;;;7.00;99.90;;;;;;5079443;28;20209;-81
2021/11/22 00:34:20;;;;;;;26.10;15.32;;;6.90;99.90;;;;;;5079338;28;20225;-80
2021/11/22 00:36:47;;;;;;;21.80;15.05;;;7.00;99.90;;;;;;5081130;28;20273;-81
2021/11/22 00:39:14;;;;;;;23.63;15.45;;;6.80;99.90;;;;;;5080899;28;20222;-80
2021/11/22 00:41:41;;;;;;;26.45;14.98;;;6.80;99.90;;;;;;5087381;28;20308;-80
2021/11/22 00:44:08;;;;;;;27.80;16.77;;;7.00;99.90;;;;;;5081108;28;20236;-80
2021/11/22 00:46:35;;;;;;;25.15;16.20;;;6.90;99.90;;;;;;5078888;28;20220;-81
2021/11/22 00:49:03;;;;;;;26.42;17.23;;;6.70;99.90;;;;;;5079285;28;20274;-81
2021/11/22 00:51:30;;;;;;;27.33;16.98;;;6.60;99.90;;;;;;5078530;28;20213;-80
2021/11/22 00:53:57;;;;;;;25.63;16.30;;;6.70;99.90;;;;;;5084133;28;20245;-80
2021/11/22 00:56:24;;;;;;;24.90;15.75;;;6.80;99.90;;;;;;5084433;28;20213;-80
2021/11/22 00:58:51;;;;;;;25.83;15.57;;;6.60;99.90;;;;;;5079923;28;20205;-81
2021/11/22 01:01:18;;;;;;;27.83;17.15;;;6.60;99.90;;;;;;5078467;28;20205;-81
2021/11/22 01:03:44;;;;;;;26.90;17.08;;;6.70;99.90;;;;;;5078941;28;20228;-81
2021/11/22 01:06:13;;;;;;;28.85;16.52;;;6.80;99.90;;;;;;5078476;28;20678;-81
2021/11/22 01:08:40;;;;;;;25.42;16.55;;;6.80;99.90;;;;;;5084931;28;20283;-81
2021/11/22 01:11:07;;;;;;;30.10;16.30;;;6.60;99.90;;;;;;5088920;28;20269;-81
2021/11/22 01:13:34;;;;;;;29.48;16.83;;;6.70;99.90;;;;;;5080328;28;20682;-81
2021/11/22 01:16:01;;;;;;;30.17;17.35;;;6.90;99.90;;;;;;5082765;28;20273;-81
2021/11/22 01:18:27;;;;;;;25.38;14.13;;;6.80;99.90;;;;;;5079450;28;20301;-81
2021/11/22 01:20:54;;;;;;;33.22;17.25;;;6.80;99.90;;;;;;5078643;28;20205;-81
2021/11/22 01:23:23;;;;;;;30.67;15.98;;;6.80;99.90;;;;;;5083904;28;20288;-81
2021/11/22 01:25:49;;;;;;;25.98;15.98;;;7.00;99.90;;;;;;5097930;28;20244;-80
2021/11/22 01:28:16;;;;;;;28.15;16.95;;;6.80;99.90;;;;;;5096366;28;20212;-81
2021/11/22 01:30:44;;;;;;;33.20;19.27;;;6.90;99.90;;;;;;5093923;28;20253;-81
2021/11/22 01:33:13;;;;;;;31.02;17.48;;;6.90;99.90;;;;;;5096976;28;20274;-81
2021/11/22 01:35:40;;;;;;;32.20;17.90;;;7.00;99.90;;;;;;5089917;28;20355;-82
2021/11/22 01:38:07;;;;;;;29.88;18.98;;;6.80;99.90;;;;;;5081071;28;20205;-82
2021/11/22 01:40:36;;;;;;;32.50;18.95;;;6.80;99.90;;;;;;5080496;28;20213;-81
2021/11/22 01:43:03;;;;;;;29.90;18.77;;;6.90;99.90;;;;;;5079358;28;20212;-81
2021/11/22 01:45:33;;;;;;;32.20;16.85;;;6.90;99.90;;;;;;5079564;28;20217;-81
2021/11/22 01:48:01;;;;;;;32.25;16.95;;;6.90;99.90;;;;;;5078814;28;20206;-81
2021/11/22 01:50:28;;;;;;;33.72;16.88;;;6.90;99.90;;;;;;5079513;28;20277;-81
2021/11/22 01:52:56;;;;;;;30.60;17.20;;;6.90;99.90;;;;;;5078145;28;20205;-81
2021/11/22 01:55:25;;;;;;;31.42;17.42;;;6.90;99.90;;;;;;5075710;28;20288;-80
2021/11/22 01:57:55;;;;;;;32.35;17.73;;;6.90;99.90;;;;;;5074066;28;20205;-80
2021/11/22 02:00:25;;;;;;;26.77;17.25;;;6.90;99.90;;;;;;5074648;28;20224;-80
2021/11/22 02:02:52;;;;;;;30.85;15.45;;;6.90;99.90;;;;;;5074343;28;20623;-79
2021/11/22 02:05:19;;;;;;;29.33;18.92;;;7.00;99.90;;;;;;5074279;28;20217;-80
2021/11/22 02:07:46;;;;;;;32.08;17.30;;;6.90;99.90;;;;;;5074724;28;20205;-80
2021/11/22 02:10:14;;;;;;;35.67;17.83;;;6.80;99.90;;;;;;5077784;28;20207;-81
2021/11/22 02:12:41;;;;;;;30.63;18.00;;;6.80;99.90;;;;;;5078076;28;20654;-80
2021/11/22 02:15:11;;;;;;;29.33;18.52;;;6.80;99.90;;;;;;5078301;28;20225;-81
2021/11/22 02:17:40;;;;;;;27.23;18.13;;;6.70;99.90;;;;;;5077969;28;20196;-82
2021/11/22 02:20:11;;;;;;;30.20;18.52;;;6.50;99.90;;;;;;5083718;28;20205;-82
2021/11/22 02:22:38;;;;;;;28.85;17.80;;;6.70;99.90;;;;;;5092793;28;20229;-81
2021/11/22 02:25:08;;;;;;;32.50;18.48;;;6.90;99.90;;;;;;5092878;28;20235;-81
2021/11/22 02:27:36;;;;;;;29.60;18.35;;;6.90;99.90;;;;;;5093822;28;20233;-81
2021/11/22 02:30:04;;;;;;;31.85;19.58;;;6.80;99.90;;;;;;5090246;28;20590;-81
2021/11/22 02:32:31;;;;;;;33.78;20.75;;;7.00;99.90;;;;;;5088745;28;20566;-81
2021/11/22 02:34:57;;;;;;;33.03;20.90;;;6.60;99.90;;;;;;5080346;28;20245;-82
2021/11/22 02:37:25;;;;;;;33.13;19.50;;;6.70;99.90;;;;;;5077773;28;20224;-81
2021/11/22 02:39:52;;;;;;;32.08;20.30;;;6.80;99.90;;;;;;5077451;28;20205;-81
2021/11/22 02:42:26;;;;;;;31.67;17.90;;;6.90;99.90;;;;;;5077867;28;20560;-82
2021/11/22 02:44:53;;;;;;;28.85;18.90;;;6.70;99.90;;;;;;5078207;28;20222;-82
2021/11/22 02:47:21;;;;;;;33.30;19.40;;;6.70;99.90;;;;;;5077656;28;20770;-81
2021/11/22 02:49:49;;;;;;;33.53;20.15;;;6.70;99.90;;;;;;5078574;28;20205;-82
2021/11/22 02:52:16;;;;;;;34.67;20.10;;;6.80;99.90;;;;;;5077082;28;20205;-82
2021/11/22 02:54:46;;;;;;;35.50;20.42;;;6.80;99.90;;;;;;5077091;28;20321;-82
2021/11/22 02:57:14;;;;;;;35.30;19.75;;;6.70;99.90;;;;;;5084968;28;20205;-82
2021/11/22 02:59:41;;;;;;;35.67;20.15;;;6.70;99.90;;;;;;5093364;28;20652;-80
2021/11/22 03:02:08;;;;;;;38.30;19.95;;;6.70;99.90;;;;;;5080121;28;20214;-80
2021/11/22 03:04:37;;;;;;;37.83;21.40;;;6.70;99.90;;;;;;5077259;28;20233;-80
2021/11/22 03:07:04;;;;;;;32.88;16.23;;;6.80;99.90;;;;;;5077641;28;20219;-80
2021/11/22 03:09:31;;;;;;;33.15;19.55;;;6.90;99.90;;;;;;5077377;28;20666;-81
2021/11/22 03:12:01;;;;;;;34.60;21.00;;;7.20;99.90;;;;;;5079075;28;20231;-80
2021/11/22 03:14:29;;;;;;;35.83;20.35;;;6.70;99.90;;;;;;5088124;28;20231;-81
2021/11/22 03:16:56;;;;;;;34.22;18.70;;;6.80;99.90;;;;;;5077132;28;20193;-81
2021/11/22 03:19:23;;;;;;;34.47;19.95;;;6.60;99.90;;;;;;5077906;28;20276;-81
2021/11/22 03:21:51;;;;;;;34.65;21.13;;;6.90;99.90;;;;;;5076705;28;20209;-81
2021/11/22 03:24:19;;;;;;;36.83;20.38;;;6.70;99.90;;;;;;5098453;22;20257;-78
2021/11/22 03:26:46;;;;;;;34.97;20.80;;;7.00;99.90;;;;;;5065387;28;20201;-80
2021/11/22 03:29:14;;;;;;;32.38;20.58;;;6.90;99.90;;;;;;5066070;28;20221;-79
2021/11/22 03:31:41;;;;;;;32.67;17.10;;;6.70;99.90;;;;;;5063019;28;20213;-79
2021/11/22 03:34:11;;;;;;;35.20;18.52;;;7.00;99.90;;;;;;5059362;28;20213;-79
2021/11/22 03:36:38;;;;;;;31.58;18.30;;;6.80;99.90;;;;;;5062346;28;20258;-79
2021/11/22 03:39:09;;;;;;;29.92;18.98;;;7.10;99.90;;;;;;5062820;28;20665;-79
2021/11/22 03:41:36;;;;;;;26.65;16.02;;;7.00;99.90;;;;;;5060997;28;20239;-79
2021/11/22 03:44:11;;;;;;;27.35;16.95;;;6.90;99.90;;;;;;5062935;28;20206;-80
2021/11/22 03:46:41;;;;;;;27.80;16.90;;;6.80;99.90;;;;;;5066783;28;20643;-79
2021/11/22 03:49:08;;;;;;;28.30;18.00;;;7.00;99.90;;;;;;5068174;28;20619;-80
2021/11/22 03:51:35;;;;;;;33.08;18.95;;;7.10;99.90;;;;;;5065425;28;20213;-79
2021/11/22 03:54:02;;;;;;;29.88;18.23;;;7.00;99.90;;;;;;5069188;28;20202;-79
2021/11/22 03:56:28;;;;;;;28.13;16.52;;;6.90;99.90;;;;;;5061052;28;20226;-79
2021/11/22 03:58:55;;;;;;;33.33;18.15;;;7.10;99.90;;;;;;5060067;28;20651;-80
2021/11/22 04:01:22;;;;;;;27.48;18.35;;;7.20;99.90;;;;;;5060659;28;20207;-80
2021/11/22 04:03:51;;;;;;;28.10;16.90;;;7.00;99.90;;;;;;5060667;28;20214;-81
2021/11/22 04:06:18;;;;;;;34.40;20.75;;;6.90;99.90;;;;;;5059409;28;20222;-80
2021/11/22 04:08:45;;;;;;;27.63;16.98;;;6.90;99.90;;;;;;5060368;28;20190;-80
2021/11/22 04:11:12;;;;;;;32.08;15.85;;;7.00;99.90;;;;;;5060355;28;20206;-80
2021/11/22 04:13:39;;;;;;;29.85;17.73;;;7.00;99.90;;;;;;5060406;28;20221;-79
2021/11/22 04:16:06;;;;;;;31.33;18.23;;;6.70;99.90;;;;;;5060377;28;20321;-79
2021/11/22 04:18:33;;;;;;;31.58;18.38;;;6.70;99.90;;;;;;5060371;28;20214;-80
2021/11/22 04:21:02;;;;;;;33.13;21.30;;;6.90;99.90;;;;;;5061270;28;20643;-81
2021/11/22 04:23:31;;;;;;;29.50;17.52;;;6.50;99.90;;;;;;5059772;28;20273;-79
2021/11/22 04:25:58;;;;;;;30.42;15.57;;;6.50;99.90;;;;;;5059543;28;20242;-79
2021/11/22 04:28:25;;;;;;;26.73;18.17;;;6.80;99.90;;;;;;5059924;28;20558;-80
2021/11/22 04:30:52;;;;;;;36.60;17.63;;;6.90;99.90;;;;;;5059363;28;20213;-79
2021/11/22 04:33:19;;;;;;;32.15;20.63;;;6.60;99.90;;;;;;5059719;28;20216;-79
2021/11/22 04:35:46;;;;;;;27.13;17.88;;;6.80;99.90;;;;;;5059890;28;20694;-79
2021/11/22 04:38:14;;;;;;;30.17;17.48;;;6.80;99.90;;;;;;5059429;28;20252;-80
2021/11/22 04:40:41;;;;;;;30.73;17.90;;;6.70;99.90;;;;;;5060357;28;20562;-79
2021/11/22 04:43:07;;;;;;;25.00;17.35;;;6.70;99.90;;;;;;5062053;28;20261;-81
2021/11/22 04:45:34;;;;;;;26.55;17.30;;;6.90;99.90;;;;;;5062341;28;20230;-79
2021/11/22 04:48:05;;;;;;;24.85;15.52;;;7.00;99.90;;;;;;5068418;28;20202;-79
2021/11/22 04:50:32;;;;;;;30.38;18.85;;;6.90;99.90;;;;;;5068367;28;20194;-79
2021/11/22 04:53:01;;;;;;;29.90;17.23;;;6.70;99.90;;;;;;5067584;28;20674;-79
2021/11/22 04:55:29;;;;;;;28.45;17.15;;;6.70;99.90;;;;;;5073468;28;20240;-79
2021/11/22 04:57:56;;;;;;;25.15;16.90;;;6.60;99.90;;;;;;5065134;28;20210;-80
2021/11/22 05:00:24;;;;;;;25.08;16.05;;;6.60;99.90;;;;;;5064158;28;20206;-78
2021/11/22 05:02:51;;;;;;;22.75;16.45;;;6.50;99.90;;;;;;5071010;28;20202;-80
2021/11/22 05:05:19;;;;;;;22.02;15.52;;;6.70;99.90;;;;;;5067761;28;20232;-79
2021/11/22 05:07:47;;;;;;;22.75;14.88;;;6.70;99.90;;;;;;5064398;28;20214;-80
2021/11/22 05:10:15;;;;;;;25.63;16.10;;;6.80;99.90;;;;;;5059415;28;20554;-80
2021/11/22 05:12:43;;;;;;;24.67;14.82;;;6.80;99.90;;;;;;5061881;28;20206;-79
2021/11/22 05:15:10;;;;;;;25.80;14.68;;;6.90;99.90;;;;;;5066723;28;20227;-78
2021/11/22 05:17:40;;;;;;;23.98;15.07;;;6.80;99.90;;;;;;5066445;28;20217;-80
2021/11/22 05:20:08;;;;;;;24.65;14.98;;;6.90;99.90;;;;;;5058587;28;20638;-80
2021/11/22 05:22:35;;;;;;;27.88;16.35;;;6.80;99.90;;;;;;5059378;28;20217;-78
2021/11/22 05:25:03;;;;;;;21.70;13.30;;;6.90;99.90;;;;;;5063526;28;20233;-79
2021/11/22 05:27:31;;;;;;;21.92;13.52;;;7.10;99.90;;;;;;5074803;28;20202;-80
2021/11/22 05:30:00;;;;;;;20.98;12.95;;;7.00;99.90;;;;;;5066840;28;20216;-79
2021/11/22 05:32:26;;;;;;;20.58;13.40;;;6.90;99.90;;;;;;5059535;28;20210;-80
2021/11/22 05:34:55;;;;;;;19.73;13.20;;;7.10;99.90;;;;;;5058385;28;20244;-79
2021/11/22 05:37:23;;;;;;;23.05;14.15;;;6.90;99.90;;;;;;5058282;28;20237;-79
2021/11/22 05:39:51;;;;;;;19.27;12.55;;;6.90;99.90;;;;;;5058747;28;20213;-79
2021/11/22 05:42:18;;;;;;;22.73;14.23;;;6.80;99.90;;;;;;5057734;28;20248;-80
2021/11/22 05:44:45;;;;;;;25.13;13.27;;;7.00;99.90;;;;;;5057688;28;20230;-80
2021/11/22 05:47:13;;;;;;;23.88;14.63;;;6.80;99.90;;;;;;5058739;28;20573;-80
2021/11/22 05:49:41;;;;;;;21.65;13.48;;;6.80;99.90;;;;;;5058899;28;20302;-79
2021/11/22 05:52:10;;;;;;;22.85;14.30;;;6.80;99.90;;;;;;5058467;28;20206;-80
2021/11/22 05:54:45;;;;;;;23.35;14.40;;;6.90;99.90;;;;;;5058524;28;20240;-80
2021/11/22 05:57:12;;;;;;;21.77;13.32;;;6.90;99.90;;;;;;5070804;28;20210;-80
2021/11/22 05:59:39;;;;;;;22.20;13.68;;;6.70;99.90;;;;;;5066371;28;20224;-80
2021/11/22 06:02:06;;;;;;;29.10;15.27;;;7.10;99.90;;;;;;5059909;28;20209;-80
2021/11/22 06:04:34;;;;;;;24.70;14.75;;;6.90;99.90;;;;;;5059318;28;20321;-79
2021/11/22 06:07:01;;;;;;;22.73;13.10;;;6.80;99.90;;;;;;5057405;28;20202;-79
2021/11/22 06:09:29;;;;;;;22.85;13.98;;;6.90;99.90;;;;;;5058005;28;20213;-79
2021/11/22 06:11:56;;;;;;;18.42;11.25;;;7.00;99.90;;;;;;5058198;28;20694;-80
2021/11/22 06:14:23;;;;;;;26.00;12.73;;;7.10;99.90;;;;;;5057988;28;20575;-80
2021/11/22 06:16:50;;;;;;;21.83;12.40;;;7.30;99.90;;;;;;5061582;28;20636;-80
2021/11/22 06:19:17;;;;;;;19.25;11.98;;;7.20;99.90;;;;;;5062555;28;20296;-80
2021/11/22 06:21:45;;;;;;;18.67;13.18;;;7.20;99.90;;;;;;5064628;28;20205;-79
2021/11/22 06:24:11;;;;;;;16.52;11.23;;;7.20;99.90;;;;;;5070612;28;20205;-79
2021/11/22 06:26:38;;;;;;;18.20;10.90;;;7.20;99.90;;;;;;5063402;28;20194;-80
2021/11/22 06:29:05;;;;;;;20.27;11.80;;;7.20;99.90;;;;;;5059406;28;20220;-79
2021/11/22 06:31:32;;;;;;;18.95;12.48;;;7.20;99.90;;;;;;5059964;28;20217;-80
2021/11/22 06:33:59;;;;;;;17.98;10.52;;;7.10;99.90;;;;;;5059273;28;20650;-79
2021/11/22 06:36:26;;;;;;;17.60;10.25;;;7.10;99.90;;;;;;5061099;28;20226;-79
2021/11/22 06:38:54;;;;;;;15.40;10.57;;;7.30;99.90;;;;;;5067954;28;20261;-80
2021/11/22 06:41:21;;;;;;;18.80;10.55;;;7.20;99.90;;;;;;5069684;28;20206;-78
2021/11/22 06:43:48;;;;;;;18.60;10.13;;;7.30;99.90;;;;;;5070431;28;20615;-78
2021/11/22 06:46:15;;;;;;;17.60;9.75;;;7.30;99.90;;;;;;5072120;28;20288;-79
2021/11/22 06:48:42;;;;;;;16.60;9.85;;;7.20;99.90;;;;;;5073875;28;20269;-79
2021/11/22 06:51:08;;;;;;;15.63;9.52;;;7.10;99.90;;;;;;5073473;28;20227;-79
2021/11/22 06:53:36;;;;;;;18.35;10.25;;;7.40;99.90;;;;;;5072783;28;20214;-78
2021/11/22 06:56:04;;;;;;;15.82;10.50;;;7.30;99.90;;;;;;5072373;28;20226;-78
2021/11/22 06:58:31;;;;;;;16.92;10.50;;;7.40;99.90;;;;;;5072026;28;20563;-77
2021/11/22 07:00:58;;;;;;;17.75;9.60;;;7.30;99.90;;;;;;5070800;28;20323;-78
2021/11/22 07:03:25;;;;;;;18.40;10.88;;;7.50;99.90;;;;;;5066110;28;20210;-79
2021/11/22 07:05:52;;;;;;;14.10;10.57;;;7.40;99.90;;;;;;5062877;28;20695;-79
2021/11/22 07:08:19;;;;;;;15.93;9.90;;;7.50;99.90;;;;;;5067477;28;20291;-79
2021/11/22 07:10:46;;;;;;;15.05;9.45;;;7.50;99.90;;;;;;5069150;28;20229;-79
2021/11/22 07:13:14;;;;;;;12.68;6.85;;;7.40;99.90;;;;;;5062821;28;20209;-78
2021/11/22 07:15:42;;;;;;;15.50;10.15;;;7.30;99.90;;;;;;5060763;28;20570;-80
2021/11/22 07:18:09;;;;;;;14.98;9.82;;;7.30;99.90;;;;;;5060757;28;20267;-79
2021/11/22 07:20:36;;;;;;;14.57;10.07;;;7.30;99.90;;;;;;5060779;28;20225;-79
2021/11/22 07:23:03;;;;;;;16.08;9.80;;;7.30;99.90;;;;;;5061897;28;20298;-81
2021/11/22 07:25:30;;;;;;;13.98;8.93;;;7.20;99.90;;;;;;5061205;28;20320;-80
2021/11/22 07:27:57;;;;;;;14.57;9.77;;;7.30;99.90;;;;;;5060906;28;20206;-79
2021/11/22 07:30:26;;;;;;;13.30;9.27;;;7.50;99.90;;;;;;5061399;28;20206;-81
2021/11/22 07:32:53;;;;;;;16.20;8.88;;;7.40;99.90;;;;;;5062352;28;20545;-80
2021/11/22 07:35:21;;;;;;;13.63;8.82;;;7.30;99.90;;;;;;5062519;28;20229;-80
2021/11/22 07:37:48;;;;;;;15.32;10.23;;;7.30;99.90;;;;;;5061083;28;20226;-79
2021/11/22 07:40:15;;;;;;;13.98;8.95;;;7.20;99.90;;;;;;5060775;28;20210;-80
2021/11/22 07:42:42;;;;;;;15.30;9.35;;;7.30;99.90;;;;;;5061009;28;20210;-80
2021/11/22 07:45:09;;;;;;;16.75;8.05;;;7.10;99.90;;;;;;5062670;28;20595;-79
2021/11/22 07:47:38;;;;;;;15.32;9.05;;;7.30;99.90;;;;;;5060626;28;20654;-79
2021/11/22 07:50:06;;;;;;;14.73;9.27;;;7.20;99.90;;;;;;5064164;28;20252;-79
2021/11/22 07:52:33;;;;;;;16.13;10.02;;;7.00;99.90;;;;;;5061696;28;20210;-78
2021/11/22 07:55:00;;;;;;;15.85;10.27;;;7.00;99.90;;;;;;5073611;28;20233;-79
2021/11/22 07:57:28;;;;;;;15.00;9.18;;;7.30;99.90;;;;;;5065568;28;20332;-78
2021/11/22 07:59:54;;;;;;;16.27;9.82;;;7.30;99.90;;;;;;5061170;28;20206;-79
2021/11/22 08:02:21;;;;;;;17.05;10.07;;;7.20;99.90;;;;;;5059940;28;20202;-79
2021/11/22 08:04:50;;;;;;;16.55;10.50;;;7.50;99.90;;;;;;5060638;28;20695;-79
2021/11/22 08:07:19;;;;;;;16.08;9.20;;;7.40;99.90;;;;;;5062741;28;20709;-80
2021/11/22 08:09:55;;;;;;;14.05;8.80;;;7.40;99.90;;;;;;5060869;28;20209;-80
2021/11/22 08:12:28;;;;;;;14.30;9.70;;;7.10;99.90;;;;;;5060244;28;20218;-80
2021/11/22 08:14:57;;;;;;;19.98;11.95;;;7.30;99.90;;;;;;5059499;28;20237;-80
2021/11/22 08:17:24;;;;;;;13.13;8.90;;;7.30;99.90;;;;;;5060835;28;20230;-82
2021/11/22 08:19:53;;;;;;;19.13;10.13;;;7.20;99.90;;;;;;5058949;28;20211;-81
2021/11/22 08:22:22;;;;;;;13.57;9.25;;;7.30;99.90;;;;;;5059698;28;20210;-80
2021/11/22 08:24:51;;;;;;;13.45;8.90;;;7.20;99.90;;;;;;5060837;28;20785;-80
2021/11/22 08:27:19;;;;;;;17.58;9.55;;;7.20;99.90;;;;;;5063690;28;20205;-80
2021/11/22 08:29:46;;;;;;;17.80;9.48;;;7.30;99.90;;;;;;5061366;28;20655;-80
2021/11/22 08:32:13;;;;;;;14.23;9.50;;;7.30;99.90;;;;;;5059277;28;20670;-79
2021/11/22 08:34:40;;;;;;;13.80;9.27;;;7.40;99.90;;;;;;5060394;28;20232;-80
2021/11/22 08:37:08;;;;;;;13.85;9.02;;;7.30;99.90;;;;;;5060656;28;20234;-78
2021/11/22 08:39:35;;;;;;;14.40;9.70;;;7.40;99.90;;;;;;5071554;28;20269;-77
2021/11/22 08:42:02;;;;;;;18.23;10.13;;;7.20;99.90;;;;;;5070884;28;20207;-80
2021/11/22 08:44:29;;;;;;;16.02;9.70;;;7.30;99.90;;;;;;5068029;28;20772;-80
2021/11/22 08:46:56;;;;;;;14.63;8.75;;;7.20;99.90;;;;;;5060309;28;20214;-80
2021/11/22 08:49:23;;;;;;;19.00;10.93;;;7.60;99.90;;;;;;5061270;28;20212;-78
2021/11/22 08:51:50;;;;;;;14.57;9.50;;;7.40;99.90;;;;;;5060810;28;20615;-79
2021/11/22 08:54:18;;;;;;;14.50;9.20;;;7.50;99.90;;;;;;5062101;28;20240;-78
2021/11/22 08:56:45;;;;;;;16.83;9.35;;;7.50;99.90;;;;;;5062242;28;20284;-80
2021/11/22 08:59:12;;;;;;;18.77;10.02;;;7.60;99.90;;;;;;5059759;28;20258;-80
2021/11/22 09:01:40;;;;;;;15.10;9.25;;;7.60;99.90;;;;;;5059266;28;20206;-82
2021/11/22 09:04:07;;;;;;;13.98;8.95;;;7.60;99.90;;;;;;5059716;28;20292;-82
2021/11/22 09:06:34;;;;;;;15.75;9.10;;;7.50;99.90;;;;;;5059052;28;20218;-80
2021/11/22 09:09:03;;;;;;;13.18;8.57;;;7.50;99.90;;;;;;5059047;28;20217;-80
2021/11/22 09:11:31;;;;;;;13.70;9.60;;;7.50;99.90;;;;;;5059973;28;20639;-79
2021/11/22 09:13:58;;;;;;;13.70;8.95;;;7.50;99.90;;;;;;5058119;28;20206;-81
2021/11/22 09:16:28;;;;;;;16.48;10.18;;;7.50;99.90;;;;;;5057588;28;20223;-78
2021/11/22 09:18:55;;;;;;;15.50;8.98;;;7.80;99.90;;;;;;5068824;28;20662;-78
2021/11/22 09:21:22;;;;;;;12.55;8.95;;;7.90;99.90;;;;;;5064337;28;20297;-80
2021/11/22 09:23:51;;;;;;;15.68;9.32;;;7.80;99.90;;;;;;5059052;28;20206;-80
2021/11/22 09:26:19;;;;;;;12.82;9.40;;;7.50;99.90;;;;;;5057679;28;20235;-80
2021/11/22 09:28:47;;;;;;;17.40;9.88;;;7.70;99.90;;;;;;5056233;28;20208;-78
2021/11/22 09:31:15;;;;;;;14.82;9.68;;;7.70;99.90;;;;;;5079163;22;20213;-77
2021/11/22 09:33:44;;;;;;;11.77;8.23;;;7.80;99.90;;;;;;5075253;28;20190;-77
2021/11/22 09:36:11;;;;;;;16.63;10.18;;;7.70;99.90;;;;;;5075354;28;20205;-77
2021/11/22 09:38:39;;;;;;;13.25;8.75;;;7.90;99.90;;;;;;5075311;28;20214;-77
2021/11/22 09:41:06;;;;;;;15.15;9.20;;;8.00;99.90;;;;;;5075554;28;20313;-77
2021/11/22 09:43:34;;;;;;;15.60;9.60;;;8.00;99.90;;;;;;5076449;28;20236;-77
2021/11/22 09:46:02;;;;;;;15.18;8.32;;;7.80;99.90;;;;;;5078996;28;20205;-78
2021/11/22 09:48:29;;;;;;;13.90;8.43;;;7.80;99.90;;;;;;5078100;28;20225;-77
2021/11/22 09:50:57;;;;;;;12.85;8.40;;;7.50;99.90;;;;;;5088520;28;20196;-78
2021/11/22 09:53:24;;;;;;;14.30;9.80;;;8.00;99.90;;;;;;5077261;28;20234;-80
2021/11/22 09:55:51;;;;;;;16.88;9.02;;;7.70;99.90;;;;;;5077439;28;20206;-79
2021/11/22 09:58:18;;;;;;;15.98;9.55;;;7.50;99.90;;;;;;5077692;28;20233;-78
2021/11/22 10:00:47;;;;;;;12.98;8.65;;;7.90;99.90;;;;;;5078080;28;20225;-79
2021/11/22 10:03:18;;;;;;;17.17;8.63;;;7.90;99.90;;;;;;5075765;28;20228;-77
2021/11/22 10:05:46;;;;;;;13.32;9.18;;;7.90;99.90;;;;;;5075428;28;20535;-76
2021/11/22 10:08:15;;;;;;;14.73;9.60;;;7.80;99.90;;;;;;5076207;28;20193;-78
2021/11/22 10:10:45;;;;;;;14.40;9.68;;;8.10;99.90;;;;;;5076515;28;20573;-78
2021/11/22 10:13:31;;;;;;;19.95;10.00;;;8.10;99.90;;;;;;5075273;28;20316;-77
2021/11/22 10:16:00;;;;;;;15.57;9.10;;;7.90;99.90;;;;;;5074635;28;20286;-78
2021/11/22 10:18:30;;;;;;;10.98;8.10;;;8.00;99.90;;;;;;5074711;28;20227;-78
2021/11/22 10:21:04;;;;;;;18.83;9.50;;;8.20;99.90;;;;;;5076658;28;20205;-77
2021/11/22 10:23:34;;;;;;;12.20;8.35;;;7.80;99.90;;;;;;5076391;28;20190;-77
2021/11/22 10:26:01;;;;;;;15.30;8.80;;;8.30;99.90;;;;;;5072982;28;20218;-76
2021/11/22 10:28:31;;;;;;;16.02;9.48;;;8.40;99.90;;;;;;5073335;28;20202;-77
2021/11/22 10:31:03;;;;;;;10.88;6.90;;;8.50;99.90;;;;;;5074226;28;20692;-77
2021/11/22 10:33:35;;;;;;;12.98;8.35;;;8.60;99.90;;;;;;5073896;28;20642;-77
2021/11/22 10:36:04;;;;;;;15.93;8.10;;;8.50;99.90;;;;;;5073200;28;20642;-76
2021/11/22 10:38:34;;;;;;;14.00;8.88;;;8.60;99.90;;;;;;5073506;28;20597;-77
2021/11/22 10:41:04;;;;;;;15.10;9.18;;;8.60;99.90;;;;;;5073612;28;20301;-77
2021/11/22 10:43:33;;;;;;;13.57;8.85;;;8.70;99.90;;;;;;5073137;28;20191;-77
2021/11/22 10:46:00;;;;;;;14.80;9.60;;;8.70;99.90;;;;;;5073486;28;20203;-77
2021/11/22 10:48:28;;;;;;;13.20;7.85;;;8.80;99.90;;;;;;5073402;28;20202;-77
2021/11/22 10:51:10;;;;;;;12.45;7.68;;;8.80;99.90;;;;;;5073758;28;20255;-77
2021/11/22 10:53:41;;;;;;;11.52;6.95;;;8.70;99.90;;;;;;5073873;28;20623;-76
2021/11/22 10:56:10;;;;;;;13.20;7.97;;;8.70;99.90;;;;;;5073574;28;20206;-77
2021/11/22 10:58:47;;;;;;;13.52;8.40;;;8.70;99.90;;;;;;5076318;28;20222;-77
2021/11/22 11:01:29;;;;;;;12.57;7.60;;;8.70;99.90;;;;;;5080256;28;20197;-76
2021/11/22 11:03:59;;;;;;;9.55;6.25;;;8.60;99.90;;;;;;5077278;28;20190;-77
2021/11/22 11:06:52;;;;;;;11.38;8.05;;;8.30;99.90;;;;;;5076622;28;20206;-77
2021/11/22 11:09:22;;;;;;;12.45;7.97;;;8.50;99.90;;;;;;5075979;28;20197;-78
2021/11/22 11:11:54;;;;;;;13.98;8.18;;;8.40;99.90;;;;;;5076506;28;20312;-77
2021/11/22 11:14:25;;;;;;;12.13;7.68;;;8.40;99.90;;;;;;5078215;28;20190;-76
2021/11/22 11:16:53;;;;;;;14.00;8.35;;;8.30;99.90;;;;;;5078276;28;20217;-79
2021/11/22 11:19:21;;;;;;;9.45;5.65;;;7.90;99.90;;;;;;5079634;28;20640;-77
2021/11/22 11:21:52;;;;;;;13.82;6.57;;;8.30;99.90;;;;;;5077451;28;20233;-79
2021/11/22 11:24:20;;;;;;;10.68;7.07;;;8.30;99.90;;;;;;5077839;28;20191;-79
2021/11/22 11:26:49;;;;;;;14.85;6.85;;;8.30;99.90;;;;;;5076938;28;20216;-77
2021/11/22 11:29:19;;;;;;;15.77;7.68;;;8.40;99.90;;;;;;5076238;28;20611;-77
2021/11/22 11:31:47;;;;;;;13.30;7.78;;;8.60;99.90;;;;;;5076503;28;20332;-75
2021/11/22 11:34:23;;;;;;;12.90;7.72;;;8.20;99.90;;;;;;5078010;28;20206;-79
2021/11/22 11:37:04;;;;;;;15.57;7.68;;;8.20;99.90;;;;;;5077028;28;20550;-77
2021/11/22 11:40:05;;;;;;;11.65;7.40;;;8.30;99.90;;;;;;5075890;28;20191;-77
2021/11/22 11:42:54;;;;;;;12.80;7.47;;;8.30;99.90;;;;;;5077520;28;20604;-78
2021/11/22 11:45:31;;;;;;;9.02;5.60;;;8.50;99.90;;;;;;5079633;28;20194;-79
2021/11/22 11:48:09;;;;;;;15.63;7.32;;;8.20;99.90;;;;;;5078430;28;20189;-78
2021/11/22 11:50:41;;;;;;;17.08;8.88;;;8.20;99.90;;;;;;5077506;28;20204;-78
2021/11/22 11:53:11;;;;;;;13.60;7.50;;;8.20;99.90;;;;;;5078195;28;20289;-79
2021/11/22 11:55:38;;;;;;;15.35;7.15;;;8.40;99.90;;;;;;5079843;28;20210;-79
2021/11/22 11:58:16;;;;;;;21.08;5.88;;;8.40;99.90;;;;;;5080711;28;20776;-78
2021/11/22 12:00:54;;;;;;;13.30;7.82;;;8.50;99.90;;;;;;5082091;28;20219;-78
2021/11/22 12:03:22;;;;;;;11.10;6.40;;;8.40;99.90;;;;;;5082787;28;20225;-78
2021/11/22 12:05:50;;;;;;;7.07;4.05;;;8.50;99.90;;;;;;5085157;28;20298;-78
2021/11/22 12:08:25;;;;;;;10.98;6.75;;;8.40;99.90;;;;;;5081215;28;20212;-79
2021/11/22 12:10:54;;;;;;;18.45;8.10;;;8.30;99.90;;;;;;5082285;28;20232;-79
2021/11/22 12:13:21;;;;;;;11.05;4.93;;;8.40;99.90;;;;;;5083690;28;20260;-79
2021/11/22 12:15:49;;;;;;;11.40;5.30;;;8.60;99.90;;;;;;5082022;28;20211;-79
2021/11/22 12:18:30;;;;;;;11.68;5.53;;;8.40;99.90;;;;;;5081632;28;20241;-79
2021/11/22 12:21:07;;;;;;;12.55;6.60;;;8.30;99.90;;;;;;5081354;28;20209;-79
2021/11/22 12:23:47;;;;;;;9.60;4.72;;;8.40;99.90;;;;;;5080734;28;20198;-79
2021/11/22 12:26:27;;;;;;;12.55;5.78;;;8.40;99.90;;;;;;5079732;28;20282;-78
2021/11/22 12:28:55;;;;;;;14.45;6.90;;;8.40;99.90;;;;;;5079529;28;20290;-77
2021/11/22 12:31:26;;;;;;;12.70;6.25;;;8.30;99.90;;;;;;5081419;28;20640;-79
2021/11/22 12:33:59;;;;;;;11.23;6.53;;;8.30;99.90;;;;;;5080909;28;20205;-79
2021/11/22 12:36:50;;;;;;;13.15;6.45;;;8.40;99.90;;;;;;5082324;28;20188;-79
2021/11/22 12:39:21;;;;;;;9.75;5.75;;;8.50;99.90;;;;;;5079849;28;20209;-80
2021/11/22 12:41:49;;;;;;;9.98;6.28;;;8.50;99.90;;;;;;5081374;28;20710;-79
2021/11/22 12:44:17;;;;;;;9.77;6.40;;;8.20;99.90;;;;;;5080941;28;20207;-79
2021/11/22 12:46:48;;;;;;;9.07;5.28;;;8.40;99.90;;;;;;5080397;28;20680;-79
2021/11/22 12:49:37;;;;;;;10.85;5.70;;;8.50;99.90;;;;;;5083978;28;20198;-79